Time;durP1;ratioP1;P1;durP2;ratioP2;P2;SDS_P1;SDS_P2;PMS_P1;PMS_P2;Temp;Humidity;BMP_temperature;BMP_pressure;BME280_temperature;BME280_humidity;BME280_pressure;Samples;Min_cycle;Max_cycle;Signal;HPM_P1;HPM_P2
2023/12/12 00:01:12;;;;;;;15.73;4.85;;;;;;;8.72;100.00;100189.28;4976900;28;20055;-78
2023/12/12 00:03:40;;;;;;;16.92;4.80;;;;;;;8.69;100.00;100202.63;4977435;28;20138;-79
2023/12/12 00:06:08;;;;;;;17.73;5.40;;;;;;;8.65;100.00;100209.94;4976074;28;20118;-79
2023/12/12 00:08:34;;;;;;;14.85;4.43;;;;;;;8.65;100.00;100204.72;4976138;28;20421;-79
2023/12/12 00:11:01;;;;;;;16.55;5.28;;;;;;;8.62;100.00;100210.25;4966011;28;20287;-79
2023/12/12 00:13:27;;;;;;;14.50;5.10;;;;;;;8.77;100.00;100202.66;4977401;28;20083;-79
2023/12/12 00:15:54;;;;;;;19.15;4.53;;;;;;;8.70;100.00;100192.03;4956774;28;20181;-79
2023/12/12 00:18:21;;;;;;;17.88;4.97;;;;;;;8.64;100.00;100182.22;4983373;28;20333;-79
2023/12/12 00:20:49;;;;;;;21.00;4.85;;;;;;;8.52;100.00;100170.41;4969188;28;20118;-79
2023/12/12 00:23:15;;;;;;;22.33;5.18;;;;;;;8.55;100.00;100173.53;4970908;28;20061;-79
2023/12/12 00:25:42;;;;;;;16.00;5.32;;;;;;;8.54;100.00;100169.28;4977279;28;20494;-80
2023/12/12 00:28:08;;;;;;;18.27;4.60;;;;;;;8.62;100.00;100165.91;4978561;28;20134;-79
2023/12/12 00:30:35;;;;;;;18.13;6.05;;;;;;;8.52;100.00;100157.38;4977409;28;20544;-79
2023/12/12 00:33:02;;;;;;;17.45;4.95;;;;;;;8.53;100.00;100164.22;4976961;28;20134;-78
2023/12/12 00:35:28;;;;;;;19.67;4.85;;;;;;;8.47;100.00;100154.44;4955990;28;20058;-79
2023/12/12 00:37:56;;;;;;;14.98;4.82;;;;;;;8.54;100.00;100158.03;4956542;28;20580;-79
2023/12/12 00:40:23;;;;;;;17.02;4.97;;;;;;;8.64;100.00;100162.16;4961304;28;20130;-78
2023/12/12 00:42:49;;;;;;;19.65;5.25;;;;;;;8.70;100.00;100152.91;4958272;28;20489;-78
2023/12/12 00:45:16;;;;;;;18.40;5.15;;;;;;;8.67;100.00;100147.19;4966223;28;20137;-78
2023/12/12 00:47:43;;;;;;;18.00;4.82;;;;;;;8.68;100.00;100152.25;4961060;28;20148;-78
2023/12/12 00:50:10;;;;;;;31.00;5.53;;;;;;;8.68;100.00;100148.81;4964633;28;20158;-79
2023/12/12 00:52:37;;;;;;;21.80;6.28;;;;;;;8.60;100.00;100154.81;4982584;28;20042;-79
2023/12/12 00:55:05;;;;;;;20.05;4.93;;;;;;;8.50;100.00;100148.91;4986944;28;20105;-79
2023/12/12 00:57:32;;;;;;;25.17;5.65;;;;;;;8.46;100.00;100148.41;4981599;28;20382;-79
2023/12/12 00:59:59;;;;;;;16.85;4.70;;;;;;;8.37;100.00;100148.50;4979764;28;20113;-79
2023/12/12 01:02:26;;;;;;;26.50;5.32;;;;;;;8.42;100.00;100151.47;4980088;28;20078;-78
2023/12/12 01:04:54;;;;;;;22.42;4.80;;;;;;;8.43;100.00;100158.31;4981304;28;20051;-79
2023/12/12 01:07:20;;;;;;;20.50;5.28;;;;;;;8.42;100.00;100156.66;4979112;28;20138;-79
2023/12/12 01:09:47;;;;;;;24.30;5.32;;;;;;;8.44;100.00;100154.72;4974122;28;20048;-78
2023/12/12 01:12:15;;;;;;;24.05;5.43;;;;;;;8.35;100.00;100160.88;4959326;28;20082;-79
2023/12/12 01:14:42;;;;;;;20.77;5.38;;;;;;;8.38;100.00;100152.72;4958833;28;20086;-78
2023/12/12 01:17:08;;;;;;;29.58;5.53;;;;;;;8.22;100.00;100146.41;4975123;28;20105;-78
2023/12/12 01:19:35;;;;;;;23.77;5.93;;;;;;;8.25;100.00;100156.53;4982110;28;20130;-80
2023/12/12 01:22:01;;;;;;;18.60;4.93;;;;;;;8.29;100.00;100157.03;4978646;28;20141;-78
2023/12/12 01:24:30;;;;;;;20.65;5.43;;;;;;;8.30;100.00;100149.06;4973563;28;20130;-78
2023/12/12 01:26:56;;;;;;;19.58;5.28;;;;;;;8.34;100.00;100149.63;4973531;28;20142;-79
2023/12/12 01:29:24;;;;;;;23.35;5.15;;;;;;;8.36;100.00;100152.06;4980875;28;20117;-79
2023/12/12 01:31:51;;;;;;;14.80;4.60;;;;;;;8.37;100.00;100158.91;4981561;28;20062;-80
2023/12/12 01:34:17;;;;;;;21.02;6.45;;;;;;;8.33;100.00;100158.41;4962561;28;20514;-79
2023/12/12 01:36:44;;;;;;;18.40;4.63;;;;;;;8.33;100.00;100163.63;4961153;28;20134;-79
2023/12/12 01:39:10;;;;;;;16.88;5.30;;;;;;;8.29;100.00;100155.25;4974091;28;20057;-81
2023/12/12 01:41:37;;;;;;;22.40;4.82;;;;;;;8.26;100.00;100165.97;4979833;28;20134;-80
2023/12/12 01:44:04;;;;;;;21.55;5.10;;;;;;;8.31;100.00;100155.91;4980434;28;20116;-80
2023/12/12 01:46:35;;;;;;;17.17;4.70;;;;;;;8.30;100.00;100159.50;4978405;28;20153;-78
2023/12/12 01:49:02;;;;;;;23.02;4.68;;;;;;;8.23;100.00;100158.47;4969011;28;20561;-78
2023/12/12 01:51:29;;;;;;;21.00;4.93;;;;;;;8.17;100.00;100158.25;4973101;28;20071;-79
2023/12/12 01:53:56;;;;;;;13.95;4.72;;;;;;;8.20;100.00;100163.97;4957155;28;20126;-79
2023/12/12 01:56:23;;;;;;;16.70;4.47;;;;;;;8.19;100.00;100166.75;4959420;28;20079;-79
2023/12/12 01:58:53;;;;;;;18.88;5.03;;;;;;;8.19;100.00;100156.31;4957705;28;20070;-79
2023/12/12 02:01:21;;;;;;;20.20;5.00;;;;;;;8.18;100.00;100165.09;4956640;28;20047;-79
2023/12/12 02:03:50;;;;;;;23.05;5.45;;;;;;;8.21;100.00;100168.22;4956115;28;20055;-79
2023/12/12 02:06:22;;;;;;;26.00;6.30;;;;;;;8.22;100.00;100156.84;4966543;28;20141;-79
2023/12/12 02:08:48;;;;;;;19.75;4.97;;;;;;;8.22;100.00;100151.63;4976031;28;20055;-78
2023/12/12 02:11:15;;;;;;;24.55;4.95;;;;;;;8.24;100.00;100157.50;4975410;28;20233;-78
2023/12/12 02:13:42;;;;;;;21.17;4.88;;;;;;;8.31;100.00;100157.72;4975037;28;20055;-79
2023/12/12 02:16:09;;;;;;;21.33;5.32;;;;;;;8.40;100.00;100153.41;4976004;28;20487;-79
2023/12/12 02:18:36;;;;;;;18.02;5.05;;;;;;;8.43;100.00;100160.91;4979200;28;20089;-80
2023/12/12 02:21:05;;;;;;;20.85;4.93;;;;;;;8.49;100.00;100168.13;4978700;28;20082;-79
2023/12/12 02:23:33;;;;;;;18.15;4.85;;;;;;;8.48;100.00;100163.88;4966169;28;20134;-80
2023/12/12 02:26:00;;;;;;;27.85;5.25;;;;;;;8.48;100.00;100163.88;4958487;28;20090;-79
2023/12/12 02:28:27;;;;;;;19.90;5.13;;;;;;;8.47;100.00;100167.47;4959506;28;20079;-79
2023/12/12 02:30:55;;;;;;;21.92;4.88;;;;;;;8.48;100.00;100153.47;4980367;28;20078;-79
2023/12/12 02:33:22;;;;;;;25.02;5.53;;;;;;;8.38;100.00;100156.16;4960431;28;20727;-79
2023/12/12 02:35:48;;;;;;;21.00;6.15;;;;;;;8.33;100.00;100166.22;4955421;28;20555;-78
2023/12/12 02:38:15;;;;;;;16.83;5.50;;;;;;;8.38;100.00;100158.78;4956822;28;20130;-79
2023/12/12 02:40:43;;;;;;;17.85;5.18;;;;;;;8.34;100.00;100148.78;4962557;28;20118;-79
2023/12/12 02:43:09;;;;;;;29.17;5.70;;;;;;;8.21;100.00;100152.59;4976568;28;20057;-79
2023/12/12 02:45:36;;;;;;;20.83;4.82;;;;;;;8.25;100.00;100158.31;4976689;28;20082;-80
2023/12/12 02:48:03;;;;;;;20.52;5.55;;;;;;;8.29;100.00;100162.25;4977474;28;20141;-80
2023/12/12 02:50:29;;;;;;;18.60;5.63;;;;;;;8.31;100.00;100149.88;4976649;28;20544;-79
2023/12/12 02:52:56;;;;;;;24.88;4.90;;;;;;;8.34;100.00;100154.00;4960715;28;20110;-80
2023/12/12 02:55:23;;;;;;;20.15;4.40;;;;;;;8.39;100.00;100162.19;4962190;28;20050;-80
2023/12/12 02:57:50;;;;;;;22.08;5.63;;;;;;;8.41;100.00;100152.44;4965111;28;20110;-78
2023/12/12 03:00:17;;;;;;;28.90;6.60;;;;;;;8.43;100.00;100156.53;4975035;28;20160;-78
2023/12/12 03:02:44;;;;;;;24.98;5.97;;;;;;;8.38;100.00;100156.16;4961663;28;20083;-78
2023/12/12 03:05:10;;;;;;;19.60;5.40;;;;;;;8.41;100.00;100144.59;4953994;28;20569;-78
2023/12/12 03:07:37;;;;;;;20.73;5.65;;;;;;;8.43;100.00;100150.50;4955726;28;20110;-78
2023/12/12 03:10:05;;;;;;;21.63;5.65;;;;;;;8.39;100.00;100154.38;4971182;28;20058;-78
2023/12/12 03:12:31;;;;;;;25.60;5.35;;;;;;;8.42;100.00;100149.66;4973438;28;20125;-78
2023/12/12 03:14:59;;;;;;;22.02;4.82;;;;;;;8.40;100.00;100151.63;4973289;28;20074;-78
2023/12/12 03:17:26;;;;;;;21.83;5.00;;;;;;;8.46;100.00;100152.78;4970236;28;20232;-78
2023/12/12 03:19:53;;;;;;;27.65;5.60;;;;;;;8.39;100.00;100152.59;4954332;28;20063;-79
2023/12/12 03:22:19;;;;;;;16.88;4.75;;;;;;;8.41;100.00;100155.03;4971143;28;20103;-79
2023/12/12 03:24:46;;;;;;;24.00;6.35;;;;;;;8.48;100.00;100154.28;4967268;28;20061;-78
2023/12/12 03:27:12;;;;;;;21.75;5.30;;;;;;;8.49;100.00;100152.47;4974246;28;20086;-79
2023/12/12 03:29:39;;;;;;;22.77;4.82;;;;;;;8.49;100.00;100148.09;4975134;28;20429;-79
2023/12/12 03:32:07;;;;;;;18.33;5.28;;;;;;;8.49;100.00;100147.28;4974214;28;20122;-78
2023/12/12 03:34:34;;;;;;;23.73;5.43;;;;;;;8.47;100.00;100141.38;4957578;28;20134;-80
2023/12/12 03:37:00;;;;;;;25.25;6.28;;;;;;;8.32;100.00;100138.50;4971038;28;20051;-79
2023/12/12 03:39:27;;;;;;;19.05;4.88;;;;;;;8.34;100.00;100135.75;4977112;28;20263;-80
2023/12/12 03:41:55;;;;;;;22.33;4.95;;;;;;;8.47;100.00;100133.56;4976431;28;20142;-79
2023/12/12 03:44:21;;;;;;;21.55;4.82;;;;;;;8.32;100.00;100134.13;4968670;28;20343;-79
2023/12/12 03:46:47;;;;;;;18.27;5.72;;;;;;;8.32;100.00;100128.91;4976710;28;20130;-80
2023/12/12 03:49:15;;;;;;;22.17;5.07;;;;;;;8.29;100.00;100131.78;4965315;28;20161;-79
2023/12/12 03:51:41;;;;;;;19.88;4.90;;;;;;;8.18;100.00;100128.63;4953870;28;20058;-79
2023/12/12 03:54:09;;;;;;;15.73;4.45;;;;;;;8.36;100.00;100128.59;4970164;28;20081;-78
2023/12/12 03:56:36;;;;;;;20.08;4.68;;;;;;;8.27;100.00;100125.91;4974402;28;20082;-78
2023/12/12 03:59:02;;;;;;;20.05;5.05;;;;;;;8.29;100.00;100120.53;4974684;28;20138;-79
2023/12/12 04:01:29;;;;;;;24.83;5.25;;;;;;;8.17;100.00;100111.34;4973337;28;20477;-78
2023/12/12 04:03:56;;;;;;;14.63;4.43;;;;;;;8.10;100.00;100115.53;4966822;28;20081;-79
2023/12/12 04:06:24;;;;;;;18.90;4.30;;;;;;;8.11;100.00;100102.34;4972480;28;20218;-78
2023/12/12 04:08:51;;;;;;;21.15;5.20;;;;;;;8.12;100.00;100106.59;4972602;28;20053;-79
2023/12/12 04:11:17;;;;;;;21.58;5.03;;;;;;;8.14;100.00;100099.44;4972937;28;20101;-78
2023/12/12 04:13:44;;;;;;;18.63;4.90;;;;;;;8.03;100.00;100084.06;4974948;28;20175;-79
2023/12/12 04:16:10;;;;;;;20.20;4.90;;;;;;;8.16;100.00;100100.09;4977890;28;20054;-78
2023/12/12 04:18:37;;;;;;;22.50;5.15;;;;;;;8.14;100.00;100082.97;4980255;28;20137;-79
2023/12/12 04:21:05;;;;;;;18.17;4.75;;;;;;;8.12;100.00;100080.53;4987919;28;20141;-81
2023/12/12 04:23:35;;;;;;;18.00;4.80;;;;;;;8.11;100.00;100080.69;4962772;28;20426;-78
2023/12/12 04:26:01;;;;;;;18.77;5.13;;;;;;;8.08;100.00;100076.59;4966662;28;20047;-79
2023/12/12 04:28:28;;;;;;;19.95;5.13;;;;;;;8.02;100.00;100077.22;4979088;28;20054;-78
2023/12/12 04:30:54;;;;;;;21.77;5.30;;;;;;;7.85;100.00;100065.06;4979209;28;20082;-79
2023/12/12 04:33:21;;;;;;;23.00;5.20;;;;;;;7.81;100.00;100067.13;4978351;28;20082;-78
2023/12/12 04:35:47;;;;;;;20.38;4.78;;;;;;;7.92;100.00;100066.09;4961924;28;20122;-78
2023/12/12 04:38:14;;;;;;;20.63;4.65;;;;;;;7.74;100.00;100060.91;4958223;28;20060;-79
2023/12/12 04:40:42;;;;;;;18.38;4.95;;;;;;;7.86;100.00;100067.50;4975920;28;20061;-78
2023/12/12 04:43:09;;;;;;;21.02;4.88;;;;;;;7.86;100.00;100066.69;4975399;28;20366;-77
2023/12/12 04:45:35;;;;;;;19.88;4.88;;;;;;;7.87;100.00;100058.72;4975668;28;20129;-77
2023/12/12 04:48:03;;;;;;;18.27;5.07;;;;;;;7.84;100.00;100058.22;4976662;28;20079;-76
2023/12/12 04:50:29;;;;;;;18.90;4.38;;;;;;;7.90;100.00;100063.63;4977263;28;20458;-78
2023/12/12 04:52:56;;;;;;;20.20;5.18;;;;;;;7.89;100.00;100058.56;4976026;28;20502;-78
2023/12/12 04:55:23;;;;;;;16.85;4.93;;;;;;;7.84;100.00;100059.03;4978247;28;20153;-80
2023/12/12 04:57:51;;;;;;;26.80;5.18;;;;;;;7.72;100.00;100054.19;4979430;28;20442;-79
2023/12/12 05:00:18;;;;;;;19.70;4.95;;;;;;;7.71;100.00;100050.78;4970501;28;20079;-79
2023/12/12 05:02:45;;;;;;;20.58;5.30;;;;;;;7.69;100.00;100049.28;4962123;28;20055;-80
2023/12/12 05:05:12;;;;;;;16.90;4.38;;;;;;;7.74;100.00;100060.91;4961527;28;20066;-79
2023/12/12 05:07:38;;;;;;;17.30;4.50;;;;;;;7.78;100.00;100051.00;4963505;28;20086;-79
2023/12/12 05:10:06;;;;;;;18.73;5.32;;;;;;;7.60;100.00;100048.41;4964024;28;20102;-79
2023/12/12 05:12:33;;;;;;;25.15;5.45;;;;;;;7.54;100.00;100047.25;4979199;28;20046;-78
2023/12/12 05:15:01;;;;;;;15.25;5.20;;;;;;;7.66;100.00;100051.22;4963440;28;20411;-79
2023/12/12 05:17:27;;;;;;;16.73;4.40;;;;;;;7.61;100.00;100045.66;4964514;28;20510;-78
2023/12/12 05:19:54;;;;;;;21.42;4.93;;;;;;;7.70;100.00;100051.75;4957810;28;20055;-78
2023/12/12 05:22:21;;;;;;;17.27;4.63;;;;;;;7.68;100.00;100042.44;4958747;28;20090;-77
2023/12/12 05:24:47;;;;;;;13.18;4.80;;;;;;;7.63;100.00;100040.31;4977003;28;20121;-78
2023/12/12 05:27:14;;;;;;;19.73;5.20;;;;;;;7.62;100.00;100041.28;4975750;28;20105;-78
2023/12/12 05:29:40;;;;;;;21.27;5.53;;;;;;;7.54;100.00;100033.41;4978081;28;20527;-78
2023/12/12 05:32:09;;;;;;;24.70;4.60;;;;;;;7.49;100.00;100036.47;4960744;28;20134;-79
2023/12/12 05:34:35;;;;;;;18.42;5.07;;;;;;;7.55;100.00;100038.47;4969795;28;20043;-78
2023/12/12 05:37:03;;;;;;;25.15;5.95;;;;;;;7.60;100.00;100036.22;4974770;28;20152;-78
2023/12/12 05:39:30;;;;;;;23.40;7.90;;;;;;;7.57;100.00;100030.47;4988847;28;20126;-78
2023/12/12 05:41:56;;;;;;;22.13;5.28;;;;;;;7.66;100.00;100035.59;4997432;28;20039;-79
2023/12/12 05:44:24;;;;;;;12.70;4.38;;;;;;;7.67;100.00;100039.03;4996703;28;20062;-79
2023/12/12 05:46:51;;;;;;;20.15;4.97;;;;;;;7.63;100.00;100043.72;4959836;28;20532;-79
2023/12/12 05:49:19;;;;;;;20.92;5.38;;;;;;;7.65;100.00;100039.19;4976934;28;20130;-79
2023/12/12 05:51:46;;;;;;;18.33;4.60;;;;;;;7.68;100.00;100032.03;4963735;28;20082;-78
2023/12/12 05:54:12;;;;;;;16.58;4.70;;;;;;;7.69;100.00;100033.69;4957081;28;20477;-78
2023/12/12 05:56:39;;;;;;;19.75;5.07;;;;;;;7.66;100.00;100046.03;4956735;28;20135;-78
2023/12/12 05:59:06;;;;;;;19.85;5.30;;;;;;;7.65;100.00;100044.38;4958459;28;20485;-79
2023/12/12 06:01:32;;;;;;;14.25;4.63;;;;;;;7.71;100.00;100039.56;4973137;28;20051;-78
2023/12/12 06:03:59;;;;;;;20.90;5.47;;;;;;;7.69;100.00;100051.91;4957148;28;20569;-78
2023/12/12 06:06:27;;;;;;;18.45;6.32;;;;;;;7.70;100.00;100050.94;4969754;28;20113;-79
2023/12/12 06:08:54;;;;;;;25.23;7.97;;;;;;;7.68;100.00;100045.06;4977557;28;20138;-78
2023/12/12 06:11:23;;;;;;;24.08;8.65;;;;;;;7.73;100.00;100050.63;4978449;28;20094;-79
2023/12/12 06:13:49;;;;;;;19.85;5.45;;;;;;;7.80;100.00;100054.28;4975840;28;20050;-78
2023/12/12 06:16:17;;;;;;;25.95;7.78;;;;;;;7.83;100.00;100053.97;4966956;28;20137;-78
2023/12/12 06:18:43;;;;;;;22.98;7.40;;;;;;;7.95;100.00;100055.34;4975055;28;20422;-78
2023/12/12 06:21:10;;;;;;;20.40;7.55;;;;;;;7.91;100.00;100038.41;4957157;28;20051;-78
2023/12/12 06:23:39;;;;;;;28.05;6.57;;;;;;;7.92;100.00;100045.25;4972166;28;20050;-78
2023/12/12 06:26:06;;;;;;;32.10;12.50;;;;;;;7.98;100.00;100039.41;4973916;28;20130;-78
2023/12/12 06:28:33;;;;;;;20.95;6.43;;;;;;;8.02;100.00;100035.53;4974306;28;20511;-78
2023/12/12 06:30:59;;;;;;;28.55;6.75;;;;;;;8.01;100.00;100039.13;4974964;28;20054;-78
2023/12/12 06:33:28;;;;;;;18.48;5.88;;;;;;;7.99;100.00;100030.63;4976863;28;20466;-78
2023/12/12 06:35:55;;;;;;;33.05;6.13;;;;;;;8.03;100.00;100037.19;4954280;28;20055;-78
2023/12/12 06:38:22;;;;;;;14.40;5.85;;;;;;;8.06;100.00;100023.00;4957740;28;20104;-79
2023/12/12 06:40:50;;;;;;;29.65;6.35;;;;;;;8.10;100.00;100025.13;4966903;28;20513;-77
2023/12/12 06:43:17;;;;;;;29.73;9.15;;;;;;;8.08;100.00;100018.44;4960022;28;20521;-78
2023/12/12 06:45:43;;;;;;;16.52;5.03;;;;;;;8.10;100.00;100012.09;4972964;28;20517;-77
2023/12/12 06:48:12;;;;;;;20.27;5.80;;;;;;;8.12;100.00;100011.94;4974029;28;20403;-77
2023/12/12 06:50:38;;;;;;;20.08;5.78;;;;;;;8.15;100.00;100004.66;4975486;28;20179;-78
2023/12/12 06:53:05;;;;;;;27.15;5.95;;;;;;;8.13;100.00;100009.19;4973496;28;20529;-77
2023/12/12 06:55:31;;;;;;;22.08;6.72;;;;;;;8.09;100.00;100000.06;4968924;28;20510;-78
2023/12/12 06:58:00;;;;;;;25.35;6.63;;;;;;;8.18;100.00;99993.09;4956843;28;20083;-78
2023/12/12 07:00:26;;;;;;;23.17;6.05;;;;;;;8.20;100.00;100007.59;4975904;28;20062;-78
2023/12/12 07:02:54;;;;;;;20.10;6.47;;;;;;;8.25;100.00;100005.34;4972315;28;20066;-77
2023/12/12 07:05:20;;;;;;;27.48;12.73;;;;;;;8.26;100.00;100000.94;4972180;28;20086;-78
2023/12/12 07:07:47;;;;;;;20.77;5.82;;;;;;;8.29;100.00;99991.03;4986382;28;20086;-78
2023/12/12 07:10:16;;;;;;;29.02;6.65;;;;;;;8.35;100.00;100000.06;4984048;28;20075;-79
2023/12/12 07:12:42;;;;;;;16.55;5.32;;;;;;;8.32;100.00;99990.75;4979610;28;20051;-78
2023/12/12 07:15:12;;;;;;;21.55;5.47;;;;;;;8.27;100.00;99986.94;4968483;28;20070;-78
2023/12/12 07:17:39;;;;;;;26.75;6.28;;;;;;;8.31;100.00;99989.09;4972789;28;20137;-79
2023/12/12 07:20:06;;;;;;;28.75;7.07;;;;;;;8.28;100.00;99984.19;4973294;28;20073;-79
2023/12/12 07:22:33;;;;;;;23.38;5.97;;;;;;;8.36;100.00;99993.06;4975993;28;20166;-79
2023/12/12 07:24:59;;;;;;;24.95;6.10;;;;;;;8.28;100.00;99994.63;4978993;28;20082;-79
2023/12/12 07:27:26;;;;;;;21.30;6.43;;;;;;;8.20;100.00;99978.13;4965674;28;20093;-78
2023/12/12 07:29:53;;;;;;;18.30;5.88;;;;;;;8.29;100.00;99980.59;4969064;28;20115;-78
2023/12/12 07:32:21;;;;;;;17.92;5.60;;;;;;;8.24;100.00;99977.66;4972914;28;20107;-77
2023/12/12 07:34:47;;;;;;;21.73;5.53;;;;;;;8.32;100.00;99975.13;4978174;28;20478;-79
2023/12/12 07:37:14;;;;;;;23.33;6.40;;;;;;;8.37;100.00;99977.25;4963547;28;20129;-79
2023/12/12 07:39:40;;;;;;;20.73;7.20;;;;;;;8.30;100.00;99966.59;4969304;28;20137;-79
2023/12/12 07:42:07;;;;;;;23.92;6.78;;;;;;;8.37;100.00;99966.00;4966697;28;20058;-78
2023/12/12 07:44:34;;;;;;;22.95;5.63;;;;;;;8.39;100.00;99974.50;4956805;28;20132;-78
2023/12/12 07:47:01;;;;;;;20.33;5.72;;;;;;;8.44;100.00;99964.41;4968916;28;20058;-78
2023/12/12 07:49:29;;;;;;;26.13;6.68;;;;;;;8.41;100.00;99962.94;4970452;28;20051;-78
2023/12/12 07:51:56;;;;;;;25.92;7.22;;;;;;;8.39;100.00;99962.28;4972359;28;20051;-80
2023/12/12 07:54:22;;;;;;;20.77;6.47;;;;;;;8.42;100.00;99963.75;4983086;28;20153;-80
2023/12/12 07:56:49;;;;;;;24.42;6.60;;;;;;;8.42;100.00;99958.53;4977286;28;20078;-78
2023/12/12 07:59:15;;;;;;;19.15;6.15;;;;;;;8.50;100.00;99961.16;4971275;28;20055;-80
2023/12/12 08:01:42;;;;;;;21.38;6.32;;;;;;;8.63;100.00;99958.91;4982347;28;20518;-80
2023/12/12 08:04:09;;;;;;;26.70;6.30;;;;;;;8.65;100.00;99956.94;4960973;28;20049;-80
2023/12/12 08:06:36;;;;;;;19.95;6.13;;;;;;;8.77;100.00;99957.47;4958016;28;20138;-80
2023/12/12 08:09:03;;;;;;;31.63;11.55;;;;;;;8.86;100.00;99962.53;4960605;28;20083;-80
2023/12/12 08:11:30;;;;;;;22.92;6.57;;;;;;;8.89;100.00;99948.34;4971712;28;20086;-80
2023/12/12 08:13:57;;;;;;;28.95;7.43;;;;;;;8.91;100.00;99954.22;4956807;28;20075;-80
2023/12/12 08:16:25;;;;;;;23.15;7.47;;;;;;;8.81;100.00;99954.38;4957712;28;20130;-80
2023/12/12 08:18:51;;;;;;;30.13;8.18;;;;;;;8.68;100.00;99948.81;4968371;28;20059;-80
2023/12/12 08:21:20;;;;;;;25.05;6.68;;;;;;;8.54;100.00;99941.59;4976002;28;20114;-80
2023/12/12 08:23:48;;;;;;;23.83;7.47;;;;;;;8.48;100.00;99953.50;4973820;28;20046;-78
2023/12/12 08:26:15;;;;;;;27.70;7.10;;;;;;;8.41;100.00;99946.47;4955781;28;20062;-79
2023/12/12 08:28:42;;;;;;;21.30;6.57;;;;;;;8.47;100.00;99951.06;4965546;28;20047;-79
2023/12/12 08:31:08;;;;;;;25.92;7.60;;;;;;;8.53;100.00;99951.22;4973424;28;20513;-79
2023/12/12 08:33:35;;;;;;;23.08;7.07;;;;;;;8.35;100.00;99947.91;4971644;28;20121;-79
2023/12/12 08:36:02;;;;;;;21.83;6.93;;;;;;;8.42;100.00;99948.09;4962999;28;20083;-79
2023/12/12 08:38:29;;;;;;;24.00;7.57;;;;;;;8.39;100.00;99953.63;4955493;28;20161;-79
2023/12/12 08:40:57;;;;;;;24.00;6.82;;;;;;;8.49;100.00;99964.75;4954607;28;20055;-78
2023/12/12 08:43:24;;;;;;;20.42;7.30;;;;;;;8.40;100.00;99965.69;4974457;28;20135;-80
2023/12/12 08:45:52;;;;;;;18.80;6.78;;;;;;;8.48;100.00;99963.13;4973295;28;20122;-80
2023/12/12 08:48:19;;;;;;;19.67;6.43;;;;;;;8.38;100.00;99958.03;4974426;28;20055;-79
2023/12/12 08:50:48;;;;;;;19.95;6.68;;;;;;;8.30;100.00;99953.56;4970282;28;20063;-80
2023/12/12 08:53:15;;;;;;;21.63;6.28;;;;;;;8.29;100.00;99959.75;4966697;28;20128;-82
2023/12/12 08:55:42;;;;;;;15.25;5.65;;;;;;;8.23;100.00;99957.78;4976862;28;20055;-80
2023/12/12 08:58:11;;;;;;;20.48;7.07;;;;;;;8.11;100.00;99950.38;4973584;28;20061;-79
2023/12/12 09:00:38;;;;;;;17.48;6.43;;;;;;;8.08;100.00;99946.31;4980058;28;20570;-80
2023/12/12 09:03:05;;;;;;;19.90;6.50;;;;;;;8.09;100.00;99949.72;4980576;28;20055;-80
2023/12/12 09:05:31;;;;;;;23.48;7.28;;;;;;;8.19;100.00;99947.81;4979603;28;20478;-80
2023/12/12 09:07:58;;;;;;;23.02;6.28;;;;;;;8.22;100.00;99945.72;4980330;28;20109;-80
2023/12/12 09:10:25;;;;;;;20.33;6.38;;;;;;;8.26;100.00;99933.19;4980212;28;20143;-78
2023/12/12 09:12:51;;;;;;;19.50;6.93;;;;;;;8.32;100.00;99929.94;4981234;28;20070;-79
2023/12/12 09:15:20;;;;;;;20.77;7.47;;;;;;;8.36;100.00;99915.66;4970332;28;20047;-78
2023/12/12 09:17:47;;;;;;;16.52;5.90;;;;;;;8.44;100.00;99910.47;4975459;28;20061;-79
2023/12/12 09:20:13;;;;;;;15.30;6.55;;;;;;;8.43;100.00;99908.03;4980671;28;20050;-81
2023/12/12 09:22:40;;;;;;;20.27;7.00;;;;;;;8.42;100.00;99902.00;4981000;28;20155;-80
2023/12/12 09:25:07;;;;;;;23.17;7.47;;;;;;;8.40;100.00;99892.69;4979190;28;20050;-80
2023/12/12 09:27:34;;;;;;;25.23;8.93;;;;;;;8.36;100.00;99894.00;4961587;28;20134;-80
2023/12/12 09:30:00;;;;;;;21.17;7.20;;;;;;;8.38;100.00;99889.44;4965164;28;20066;-80
2023/12/12 09:32:28;;;;;;;21.02;7.03;;;;;;;8.40;100.00;99892.69;4968048;28;20055;-80
2023/12/12 09:34:55;;;;;;;19.15;6.72;;;;;;;8.40;100.00;99882.28;4966997;28;20188;-80
2023/12/12 09:37:22;;;;;;;20.38;6.30;;;;;;;8.39;100.00;99867.59;4977245;28;20148;-81
2023/12/12 09:39:48;;;;;;;24.92;8.13;;;;;;;8.47;100.00;99867.63;4981068;28;20061;-81
2023/12/12 09:42:18;;;;;;;21.30;6.22;;;;;;;8.67;100.00;99873.31;4973173;28;20051;-80
2023/12/12 09:44:56;;;;;;;17.73;6.03;;;;;;;8.94;100.00;99871.22;4976116;28;20071;-81
2023/12/12 09:47:23;;;;;;;18.85;5.72;;;;;;;9.25;100.00;99873.13;4964579;28;20090;-81
2023/12/12 09:49:54;;;;;;;17.52;6.47;;;;;;;9.07;100.00;99864.66;4960437;28;20131;-81
2023/12/12 09:52:21;;;;;;;17.23;6.10;;;;;;;9.11;100.00;99855.53;4962777;28;20096;-80
2023/12/12 09:54:48;;;;;;;22.95;6.20;;;;;;;9.04;100.00;99852.75;4980692;28;20137;-80
2023/12/12 09:57:18;;;;;;;16.63;6.40;;;;;;;9.10;100.00;99856.50;4969608;28;20130;-81
2023/12/12 09:59:44;;;;;;;22.17;7.40;;;;;;;9.09;100.00;99847.88;4974233;28;20141;-80
2023/12/12 10:02:16;;;;;;;20.35;7.00;;;;;;;9.13;100.00;99840.53;4979934;28;20078;-80
2023/12/12 10:04:44;;;;;;;16.67;6.20;;;;;;;9.10;100.00;99838.25;4979484;28;20093;-80
2023/12/12 10:07:16;;;;;;;20.75;6.22;;;;;;;9.27;100.00;99837.25;4977534;28;20090;-80
2023/12/12 10:09:43;;;;;;;17.98;6.85;;;;;;;9.36;100.00;99817.97;4977439;28;20133;-81
2023/12/12 10:12:10;;;;;;;24.10;6.72;;;;;;;9.30;100.00;99816.84;4977815;28;20442;-79
2023/12/12 10:14:37;;;;;;;23.98;7.40;;;;;;;9.37;100.00;99811.75;4977905;28;20055;-80
2023/12/12 10:17:05;;;;;;;15.43;6.55;;;;;;;9.42;100.00;99811.25;4978412;28;20421;-81
2023/12/12 10:19:32;;;;;;;23.50;6.68;;;;;;;9.62;100.00;99804.63;4966710;28;20443;-80
2023/12/12 10:22:01;;;;;;;21.92;6.95;;;;;;;9.75;100.00;99806.72;4974930;28;20110;-80
2023/12/12 10:24:29;;;;;;;22.70;6.05;;;;;;;9.69;100.00;99797.75;4978695;28;20049;-80
2023/12/12 10:26:56;;;;;;;23.75;8.48;;;;;;;9.71;100.00;99787.13;4977589;28;20153;-79
2023/12/12 10:29:24;;;;;;;24.45;7.32;;;;;;;9.73;100.00;99778.16;4970483;28;20055;-79
2023/12/12 10:31:50;;;;;;;22.13;8.05;;;;;;;9.85;100.00;99766.31;4978576;28;20050;-80
2023/12/12 10:34:19;;;;;;;16.65;5.93;;;;;;;9.90;100.00;99763.19;4978068;28;20042;-80
2023/12/12 10:36:48;;;;;;;24.48;6.03;;;;;;;9.87;100.00;99753.91;4976931;28;20137;-79
2023/12/12 10:39:16;;;;;;;19.90;6.13;;;;;;;9.81;100.00;99751.16;4975256;28;20530;-80
2023/12/12 10:41:52;;;;;;;20.13;6.25;;;;;;;9.93;100.00;99752.38;4963984;28;20166;-80
2023/12/12 10:44:21;;;;;;;20.23;6.88;;;;;;;9.90;100.00;99747.53;4978175;28;20138;-80
2023/12/12 10:46:52;;;;;;;18.83;6.75;;;;;;;9.89;100.00;99762.38;4976908;28;20050;-77
2023/12/12 10:49:21;;;;;;;14.88;6.05;;;;;;;9.83;100.00;99764.88;4978178;28;20185;-78
2023/12/12 10:51:49;;;;;;;17.42;6.30;;;;;;;9.56;100.00;99761.72;4976934;28;20105;-78
2023/12/12 10:54:17;;;;;;;16.80;6.15;;;;;;;9.54;100.00;99758.47;4968025;28;20138;-80
2023/12/12 10:56:46;;;;;;;13.45;6.05;;;;;;;9.78;100.00;99769.78;4966814;28;20107;-80
2023/12/12 10:59:17;;;;;;;20.67;5.90;;;;;;;9.55;100.00;99760.09;4968415;28;20054;-80
2023/12/12 11:01:46;;;;;;;16.02;6.38;;;;;;;9.30;100.00;99748.16;4968812;28;20054;-80
2023/12/12 11:04:14;;;;;;;18.23;5.93;;;;;;;9.06;100.00;99727.34;4976380;28;20155;-80
2023/12/12 11:06:42;;;;;;;17.38;6.72;;;;;;;9.09;100.00;99733.03;4962816;28;20135;-79
2023/12/12 11:09:09;;;;;;;18.17;6.10;;;;;;;9.06;100.00;99746.41;4957695;28;20083;-79
2023/12/12 11:11:37;;;;;;;21.75;6.93;;;;;;;8.96;100.00;99736.19;4970139;28;20493;-80
2023/12/12 11:14:05;;;;;;;18.20;6.60;;;;;;;8.86;100.00;99742.56;4976267;28;20047;-80
2023/12/12 11:16:34;;;;;;;22.27;7.22;;;;;;;8.79;100.00;99744.22;4977426;28;20081;-80
2023/12/12 11:19:02;;;;;;;18.23;6.80;;;;;;;8.72;100.00;99731.03;4976584;28;20458;-80